Explorer Of The Seas — C6SE4 — position and weather

sailwx.info

Track history (hours):
 
Tides and Currents Weather Stations Pressure Air Temp Water Temp Dewpoint Dewpoint Depression Visibility Wind Speed Wind Dir Waves Ship Positions

Explorer Of The Seas

Operator: Royal Caribbean Cruises Ltd

Last reported at 2020-Oct-28 03:58 UTC. Time now 2020-Oct-28 06:03 UTC.
Position N 50°39' W 001°48'.

Length 311 m; draft 8.8 m.

Type: Passenger vessel. MMSI: 311316000.

Date/timePositionNaut miles runAvg speedWind from/ knotsBaromVisibWave heightAir tempDewpointWater temp
2020-Oct-28 03:58N 50°39' W 001°48'0 0.0
2020-Oct-27 22:58N 50°39' W 001°48'0 0.0
2020-Oct-27 20:58N 50°39' W 001°48'0 0.0
2020-Oct-27 19:58N 50°39' W 001°48'0 0.0
2020-Oct-27 16:58N 50°39' W 001°48'0 0.0
2020-Oct-27 14:55N 50°39' W 001°48'3 1.7
2020-Oct-27 13:00N 50°36' W 001°48'3 6.4 240 / 30995.5 2.2 14.0 14.0
2020-Oct-27 12:28N 50°39' W 001°48'3 7.0
2020-Oct-27 12:00N 50°36' W 001°48'3 3.2 220 / 36994.7 1.1 12.510.713.8
2020-Oct-27 10:55N 50°39' W 001°48'0 0.0
2020-Oct-27 10:25N 50°39' W 001°48'0 0.0
2020-Oct-27 09:28N 50°39' W 001°48'0 0.1
2020-Oct-27 07:58N 50°39' W 001°48'0 0.0
2020-Oct-27 07:28N 50°39' W 001°48'0 0.1
2020-Oct-27 05:58N 50°39' W 001°48'0 0.0
2020-Oct-27 03:28N 50°39' W 001°48'0 0.0
2020-Oct-27 02:58N 50°39' W 001°48'0 0.0
2020-Oct-26 23:28N 50°39' W 001°48'5 1.1
2020-Oct-26 19:00N 50°36' W 001°42'5 9.6 270 / 161002.4 10.3-4.9
2020-Oct-26 18:28N 50°39' W 001°48'3 0.5
2020-Oct-26 11:31N 50°39' W 001°53'0 0.0
2020-Oct-26 10:31N 50°39' W 001°53'3 0.9
2020-Oct-26 07:00N 50°39' W 001°48'0 0.1
2020-Oct-26 06:27N 50°39' W 001°48'0 0.1
2020-Oct-26 06:00N 50°39' W 001°48'0 0.1
2020-Oct-26 05:27N 50°39' W 001°48'0 0.0
2020-Oct-26 05:00N 50°39' W 001°48'0 0.0
2020-Oct-26 02:30N 50°39' W 001°48'5 3.3
2020-Oct-26 01:00N 50°36' W 001°42'5 9.0 270
2020-Oct-26 00:27N 50°39' W 001°48'0 0.0
2020-Oct-25 22:57N 50°39' W 001°48'3 3.4
2020-Oct-25 22:00N 50°36' W 001°48'3 1.1 270 / 12997.510.8 10.5 7.714.0
2020-Oct-25 19:01N 50°39' W 001°47'610.9
2020-Oct-25 18:30N 50°34' W 001°43'1310.1
2020-Oct-25 17:13N 50°25' W 001°29'1214.9
2020-Oct-25 16:26N 50°22' W 001°47'715.3
2020-Oct-25 15:59N 50°20' W 001°58'4 0.7
2020-Oct-25 10:10N 50°21' W 001°52'1911.2
2020-Oct-25 08:30N 50°39' W 001°47'0 0.1
2020-Oct-25 05:22N 50°40' W 001°47'0 0.0
2020-Oct-25 04:28N 50°40' W 001°47'0 0.0
2020-Oct-25 02:55N 50°40' W 001°47'0 0.0
2020-Oct-25 01:58N 50°40' W 001°47'5 2.5
2020-Oct-25 00:00N 50°36' W 001°42'5148.8 270 / 21997.510.8 13.0 14.0
2020-Oct-24 23:58N 50°40' W 001°47'0 0.0
2020-Oct-24 22:28N 50°40' W 001°47'0 0.1
2020-Oct-24 21:58N 50°40' W 001°47'5 1.2
2020-Oct-24 18:00N 50°36' W 001°42'536.8 240 / 34996.5 2.2 12.810.014.1
2020-Oct-24 17:52N 50°40' W 001°47'0 0.1
2020-Oct-24 16:28N 50°40' W 001°47'0 0.0
2020-Oct-24 13:58N 50°40' W 001°47'5 2.5
2020-Oct-24 12:00N 50°36' W 001°42'537.4 200 / 351001.510.8 14.0 14.0
2020-Oct-24 11:52N 50°40' W 001°47'0 0.0
2020-Oct-24 10:58N 50°40' W 001°47'0 0.0
2020-Oct-24 09:58N 50°40' W 001°47'5 2.5
2020-Oct-24 08:00N 50°36' W 001°42'5 1.0 220 / 301005.2 14.010.2
2020-Oct-24 02:58N 50°40' W 001°47'0 0.1
2020-Oct-24 01:28N 50°40' W 001°47'5 3.4
2020-Oct-24 00:00N 50°36' W 001°42'5 7.2 220 / 181009.510.8 12.0 14.0
2020-Oct-23 23:19N 50°40' W 001°47'0 0.0
2020-Oct-23 21:58N 50°40' W 001°47'5 5.1
2020-Oct-23 21:00N 50°36' W 001°42'0 0.0 290 / 121010.710.8 10.8 5.214.2
2020-Oct-23 18:00N 50°36' W 001°42'5 3.2 270 / 171010.010.8 12.8 9.314.1
2020-Oct-23 16:28N 50°40' W 001°47'510.6
2020-Oct-23 16:00N 50°36' W 001°42'5 0.9 270 / 151009.8 11.0-1.814.2
2020-Oct-23 10:28N 50°40' W 001°47'0 0.0
2020-Oct-23 08:28N 50°40' W 001°47'0 0.0
2020-Oct-23 07:28N 50°40' W 001°47'510.6
2020-Oct-23 07:00N 50°36' W 001°42'537.3 250 / 221008.2 12.4 6.614.1
2020-Oct-23 06:52N 50°40' W 001°47'0 0.0
2020-Oct-23 06:22N 50°40' W 001°47'0 0.0
2020-Oct-23 03:58N 50°40' W 001°47'5 1.7
2020-Oct-23 01:00N 50°36' W 001°42'5 6.8 180 / 151009.510.8 13.0 14.0
2020-Oct-23 00:16N 50°40' W 001°47'0 0.0
2020-Oct-22 22:28N 50°40' W 001°47'5 3.4
2020-Oct-22 21:00N 50°36' W 001°42'5 1.8 220 / 121010.510.8 12.8 7.314.2
2020-Oct-22 18:13N 50°40' W 001°48'522.9
2020-Oct-22 18:00N 50°36' W 001°42'527.2 240 / 141010.510.8 12.5 6.114.2
2020-Oct-22 17:49N 50°40' W 001°48'0 0.0
2020-Oct-22 14:58N 50°40' W 001°47'0 0.0
2020-Oct-22 14:28N 50°40' W 001°47'0 0.0
2020-Oct-22 13:58N 50°40' W 001°47'0 0.0
2020-Oct-22 10:55N 50°40' W 001°47'0 0.0
2020-Oct-22 10:28N 50°40' W 001°47'0 0.0
2020-Oct-22 07:58N 50°40' W 001°47'0 0.1
2020-Oct-22 07:28N 50°40' W 001°47'0 0.0
2020-Oct-22 06:28N 50°40' W 001°47'0 0.0
2020-Oct-22 04:58N 50°40' W 001°47'0 0.1
2020-Oct-22 03:28N 50°40' W 001°48'0 0.0
2020-Oct-21 23:58N 50°40' W 001°47'0 0.0
2020-Oct-21 23:28N 50°40' W 001°47'5 2.0
2020-Oct-21 21:00N 50°36' W 001°42'5 4.9 250 / 301004.3 5.4 13.810.114.3
2020-Oct-21 19:58N 50°40' W 001°48'0 0.1
2020-Oct-21 18:58N 50°40' W 001°48'4 3.7
2020-Oct-21 18:00N 50°36' W 001°48'3 6.0 240 / 241001.7 13.5 9.114.3
2020-Oct-21 17:25N 50°39' W 001°48'512.0
2020-Oct-21 17:00N 50°36' W 001°42'5 2.0 250 / 201001.2 14.510.314.2
2020-Oct-21 14:28N 50°40' W 001°48'0 0.0
2020-Oct-21 12:58N 50°40' W 001°48'5 5.2
2020-Oct-21 12:00N 50°36' W 001°42'4 1.9 270 / 20994.510.8 14.0 14.0
2020-Oct-21 10:00N 50°36' W 001°48'4 5.7 220 / 12991.5 2.2 12.811.714.3
2020-Oct-21 09:22N 50°40' W 001°48'0 0.0
2020-Oct-21 08:52N 50°40' W 001°48'0 0.1
2020-Oct-21 08:16N 50°40' W 001°48'0 0.1
2020-Oct-21 07:28N 50°40' W 001°48'0 0.0
2020-Oct-21 06:19N 50°40' W 001°48'0 0.0
2020-Oct-21 05:58N 50°40' W 001°48'0 0.0
2020-Oct-21 04:28N 50°40' W 001°48'0 0.0
2020-Oct-21 03:58N 50°40' W 001°48'0 0.0
2020-Oct-21 03:28N 50°40' W 001°48'0 0.0
2020-Oct-21 02:28N 50°40' W 001°48'0 0.0
2020-Oct-21 00:28N 50°40' W 001°48'4 7.7
2020-Oct-21 00:00N 50°36' W 001°48'0 0.0 150 / 20998.410.8 14.0 14.1
2020-Oct-20 21:00N 50°36' W 001°48'4 2.3 160 / 22999.310.8 13.810.914.2
2020-Oct-20 19:25N 50°40' W 001°48'5 1.5
2020-Oct-20 16:00N 50°36' W 001°42'5156.4 190 / 241000.8 15.310.214.2
2020-Oct-20 15:58N 50°40' W 001°48'0 0.0
2020-Oct-20 12:58N 50°40' W 001°48'4 0.9
2020-Oct-20 09:00N 50°36' W 001°48'4 6.8 190 / 281000.5 5.4 14.210.614.2
2020-Oct-20 08:28N 50°40' W 001°48'0 0.0
2020-Oct-20 06:28N 50°40' W 001°48'511.0
2020-Oct-20 06:00N 50°36' W 001°42'5 4.9 190 / 281000.1 14.014.0
2020-Oct-20 04:58N 50°40' W 001°48'0 0.0
2020-Oct-20 03:55N 50°40' W 001°48'0 0.1
2020-Oct-20 03:19N 50°40' W 001°48'60761831.5
2020-Oct-20 00:00S 50°36' W 001°42'60761695.9 180 / 231002.5 5.4 14.0 13.8
2020-Oct-19 20:25N 50°40' W 001°48'0 0.0
2020-Oct-19 19:58N 50°40' W 001°48'4 1.8
2020-Oct-19 18:00N 50°36' W 001°48'4 1.2 140 / 271007.510.8 12.0 13.8
2020-Oct-19 14:58N 50°40' W 001°48'0 0.0
2020-Oct-19 13:58N 50°40' W 001°48'0 0.0
2020-Oct-19 12:55N 50°40' W 001°48'0 0.0
2020-Oct-19 10:58N 50°40' W 001°48'0 0.1
2020-Oct-19 08:58N 50°39' W 001°48'0 0.0
2020-Oct-19 08:25N 50°39' W 001°48'0 0.0
2020-Oct-19 06:58N 50°39' W 001°48'0 0.0
2020-Oct-19 04:28N 50°39' W 001°48'0 0.0
2020-Oct-19 02:58N 50°39' W 001°48'0 0.0
2020-Oct-19 02:25N 50°39' W 001°48'0 0.1
2020-Oct-19 00:58N 50°39' W 001°48'0 0.0
2020-Oct-18 23:49N 50°39' W 001°48'0 0.0
2020-Oct-18 22:58N 50°39' W 001°48'0 0.0
2020-Oct-18 20:52N 50°39' W 001°48'0 0.0
2020-Oct-18 16:55N 50°39' W 001°48'0 0.0
2020-Oct-18 09:58N 50°39' W 001°48'0 0.0
2020-Oct-18 09:28N 50°39' W 001°48'0 0.0
2020-Oct-18 07:28N 50°39' W 001°48'  
Track history (hours):
 
Tides and Currents Weather Stations Pressure Air Temp Water Temp Dewpoint Dewpoint Depression Visibility Wind Speed Wind Dir Waves Ship Positions

Explorer Of The Seas

Operator: Royal Caribbean Cruises Ltd

Last reported at 2020-Oct-28 03:58 UTC. Time now 2020-Oct-28 06:03 UTC.
Position N 50°39' W 001°48'.

Length 311 m; draft 8.8 m.

Type: Passenger vessel. MMSI: 311316000.

Date/timePositionNaut miles runAvg speedWind from/ knotsBaromVisibWave heightAir tempDewpointWater temp
2020-Oct-28 03:58N 50°39' W 001°48'0 0.0
2020-Oct-27 22:58N 50°39' W 001°48'0 0.0
2020-Oct-27 20:58N 50°39' W 001°48'0 0.0
2020-Oct-27 19:58N 50°39' W 001°48'0 0.0
2020-Oct-27 16:58N 50°39' W 001°48'0 0.0
2020-Oct-27 14:55N 50°39' W 001°48'3 1.7
2020-Oct-27 13:00N 50°36' W 001°48'3 6.4 240 / 30995.5 2.2 14.0 14.0
2020-Oct-27 12:28N 50°39' W 001°48'3 7.0
2020-Oct-27 12:00N 50°36' W 001°48'3 3.2 220 / 36994.7 1.1 12.510.713.8
2020-Oct-27 10:55N 50°39' W 001°48'0 0.0
2020-Oct-27 10:25N 50°39' W 001°48'0 0.0
2020-Oct-27 09:28N 50°39' W 001°48'0 0.1
2020-Oct-27 07:58N 50°39' W 001°48'0 0.0
2020-Oct-27 07:28N 50°39' W 001°48'0 0.1
2020-Oct-27 05:58N 50°39' W 001°48'0 0.0
2020-Oct-27 03:28N 50°39' W 001°48'0 0.0
2020-Oct-27 02:58N 50°39' W 001°48'0 0.0
2020-Oct-26 23:28N 50°39' W 001°48'5 1.1
2020-Oct-26 19:00N 50°36' W 001°42'5 9.6 270 / 161002.4 10.3-4.9
2020-Oct-26 18:28N 50°39' W 001°48'3 0.5
2020-Oct-26 11:31N 50°39' W 001°53'0 0.0
2020-Oct-26 10:31N 50°39' W 001°53'3 0.9
2020-Oct-26 07:00N 50°39' W 001°48'0 0.1
2020-Oct-26 06:27N 50°39' W 001°48'0 0.1
2020-Oct-26 06:00N 50°39' W 001°48'0 0.1
2020-Oct-26 05:27N 50°39' W 001°48'0 0.0
2020-Oct-26 05:00N 50°39' W 001°48'0 0.0
2020-Oct-26 02:30N 50°39' W 001°48'5 3.3
2020-Oct-26 01:00N 50°36' W 001°42'5 9.0 270
2020-Oct-26 00:27N 50°39' W 001°48'0 0.0
2020-Oct-25 22:57N 50°39' W 001°48'3 3.4
2020-Oct-25 22:00N 50°36' W 001°48'3 1.1 270 / 12997.510.8 10.5 7.714.0
2020-Oct-25 19:01N 50°39' W 001°47'610.9
2020-Oct-25 18:30N 50°34' W 001°43'1310.1
2020-Oct-25 17:13N 50°25' W 001°29'1214.9
2020-Oct-25 16:26N 50°22' W 001°47'715.3
2020-Oct-25 15:59N 50°20' W 001°58'4 0.7
2020-Oct-25 10:10N 50°21' W 001°52'1911.2
2020-Oct-25 08:30N 50°39' W 001°47'0 0.1
2020-Oct-25 05:22N 50°40' W 001°47'0 0.0
2020-Oct-25 04:28N 50°40' W 001°47'0 0.0
2020-Oct-25 02:55N 50°40' W 001°47'0 0.0
2020-Oct-25 01:58N 50°40' W 001°47'5 2.5
2020-Oct-25 00:00N 50°36' W 001°42'5148.8 270 / 21997.510.8 13.0 14.0
2020-Oct-24 23:58N 50°40' W 001°47'0 0.0
2020-Oct-24 22:28N 50°40' W 001°47'0 0.1
2020-Oct-24 21:58N 50°40' W 001°47'5 1.2
2020-Oct-24 18:00N 50°36' W 001°42'536.8 240 / 34996.5 2.2 12.810.014.1
2020-Oct-24 17:52N 50°40' W 001°47'0 0.1
2020-Oct-24 16:28N 50°40' W 001°47'0 0.0
2020-Oct-24 13:58N 50°40' W 001°47'5 2.5
2020-Oct-24 12:00N 50°36' W 001°42'537.4 200 / 351001.510.8 14.0 14.0
2020-Oct-24 11:52N 50°40' W 001°47'0 0.0
2020-Oct-24 10:58N 50°40' W 001°47'0 0.0
2020-Oct-24 09:58N 50°40' W 001°47'5 2.5
2020-Oct-24 08:00N 50°36' W 001°42'5 1.0 220 / 301005.2 14.010.2
2020-Oct-24 02:58N 50°40' W 001°47'0 0.1
2020-Oct-24 01:28N 50°40' W 001°47'5 3.4
2020-Oct-24 00:00N 50°36' W 001°42'5 7.2 220 / 181009.510.8 12.0 14.0
2020-Oct-23 23:19N 50°40' W 001°47'0 0.0
2020-Oct-23 21:58N 50°40' W 001°47'5 5.1
2020-Oct-23 21:00N 50°36' W 001°42'0 0.0 290 / 121010.710.8 10.8 5.214.2
2020-Oct-23 18:00N 50°36' W 001°42'5 3.2 270 / 171010.010.8 12.8 9.314.1
2020-Oct-23 16:28N 50°40' W 001°47'510.6
2020-Oct-23 16:00N 50°36' W 001°42'5 0.9 270 / 151009.8 11.0-1.814.2
2020-Oct-23 10:28N 50°40' W 001°47'0 0.0
2020-Oct-23 08:28N 50°40' W 001°47'0 0.0
2020-Oct-23 07:28N 50°40' W 001°47'510.6
2020-Oct-23 07:00N 50°36' W 001°42'537.3 250 / 221008.2 12.4 6.614.1
2020-Oct-23 06:52N 50°40' W 001°47'0 0.0
2020-Oct-23 06:22N 50°40' W 001°47'0 0.0
2020-Oct-23 03:58N 50°40' W 001°47'5 1.7
2020-Oct-23 01:00N 50°36' W 001°42'5 6.8 180 / 151009.510.8 13.0 14.0
2020-Oct-23 00:16N 50°40' W 001°47'0 0.0
2020-Oct-22 22:28N 50°40' W 001°47'5 3.4
2020-Oct-22 21:00N 50°36' W 001°42'5 1.8 220 / 121010.510.8 12.8 7.314.2
2020-Oct-22 18:13N 50°40' W 001°48'522.9
2020-Oct-22 18:00N 50°36' W 001°42'527.2 240 / 141010.510.8 12.5 6.114.2
2020-Oct-22 17:49N 50°40' W 001°48'0 0.0
2020-Oct-22 14:58N 50°40' W 001°47'0 0.0
2020-Oct-22 14:28N 50°40' W 001°47'0 0.0
2020-Oct-22 13:58N 50°40' W 001°47'0 0.0
2020-Oct-22 10:55N 50°40' W 001°47'0 0.0
2020-Oct-22 10:28N 50°40' W 001°47'0 0.0
2020-Oct-22 07:58N 50°40' W 001°47'0 0.1
2020-Oct-22 07:28N 50°40' W 001°47'0 0.0
2020-Oct-22 06:28N 50°40' W 001°47'0 0.0
2020-Oct-22 04:58N 50°40' W 001°47'0 0.1
2020-Oct-22 03:28N 50°40' W 001°48'0 0.0
2020-Oct-21 23:58N 50°40' W 001°47'0 0.0
2020-Oct-21 23:28N 50°40' W 001°47'5 2.0
2020-Oct-21 21:00N 50°36' W 001°42'5 4.9 250 / 301004.3 5.4 13.810.114.3
2020-Oct-21 19:58N 50°40' W 001°48'0 0.1
2020-Oct-21 18:58N 50°40' W 001°48'4 3.7
2020-Oct-21 18:00N 50°36' W 001°48'3 6.0 240 / 241001.7 13.5 9.114.3
2020-Oct-21 17:25N 50°39' W 001°48'512.0
2020-Oct-21 17:00N 50°36' W 001°42'5 2.0 250 / 201001.2 14.510.314.2
2020-Oct-21 14:28N 50°40' W 001°48'0 0.0
2020-Oct-21 12:58N 50°40' W 001°48'5 5.2
2020-Oct-21 12:00N 50°36' W 001°42'4 1.9 270 / 20994.510.8 14.0 14.0
2020-Oct-21 10:00N 50°36' W 001°48'4 5.7 220 / 12991.5 2.2 12.811.714.3
2020-Oct-21 09:22N 50°40' W 001°48'0 0.0
2020-Oct-21 08:52N 50°40' W 001°48'0 0.1
2020-Oct-21 08:16N 50°40' W 001°48'0 0.1
2020-Oct-21 07:28N 50°40' W 001°48'0 0.0
2020-Oct-21 06:19N 50°40' W 001°48'0 0.0
2020-Oct-21 05:58N 50°40' W 001°48'0 0.0
2020-Oct-21 04:28N 50°40' W 001°48'0 0.0
2020-Oct-21 03:58N 50°40' W 001°48'0 0.0
2020-Oct-21 03:28N 50°40' W 001°48'0 0.0
2020-Oct-21 02:28N 50°40' W 001°48'0 0.0
2020-Oct-21 00:28N 50°40' W 001°48'4 7.7
2020-Oct-21 00:00N 50°36' W 001°48'0 0.0 150 / 20998.410.8 14.0 14.1
2020-Oct-20 21:00N 50°36' W 001°48'4 2.3 160 / 22999.310.8 13.810.914.2
2020-Oct-20 19:25N 50°40' W 001°48'5 1.5
2020-Oct-20 16:00N 50°36' W 001°42'5156.4 190 / 241000.8 15.310.214.2
2020-Oct-20 15:58N 50°40' W 001°48'0 0.0
2020-Oct-20 12:58N 50°40' W 001°48'4 0.9
2020-Oct-20 09:00N 50°36' W 001°48'4 6.8 190 / 281000.5 5.4 14.210.614.2
2020-Oct-20 08:28N 50°40' W 001°48'0 0.0
2020-Oct-20 06:28N 50°40' W 001°48'511.0
2020-Oct-20 06:00N 50°36' W 001°42'5 4.9 190 / 281000.1 14.014.0
2020-Oct-20 04:58N 50°40' W 001°48'0 0.0
2020-Oct-20 03:55N 50°40' W 001°48'0 0.1
2020-Oct-20 03:19N 50°40' W 001°48'60761831.5
2020-Oct-20 00:00S 50°36' W 001°42'60761695.9 180 / 231002.5 5.4 14.0 13.8
2020-Oct-19 20:25N 50°40' W 001°48'0 0.0
2020-Oct-19 19:58N 50°40' W 001°48'4 1.8
2020-Oct-19 18:00N 50°36' W 001°48'4 1.2 140 / 271007.510.8 12.0 13.8
2020-Oct-19 14:58N 50°40' W 001°48'0 0.0
2020-Oct-19 13:58N 50°40' W 001°48'0 0.0
2020-Oct-19 12:55N 50°40' W 001°48'0 0.0
2020-Oct-19 10:58N 50°40' W 001°48'0 0.1
2020-Oct-19 08:58N 50°39' W 001°48'0 0.0
2020-Oct-19 08:25N 50°39' W 001°48'0 0.0
2020-Oct-19 06:58N 50°39' W 001°48'0 0.0
2020-Oct-19 04:28N 50°39' W 001°48'0 0.0
2020-Oct-19 02:58N 50°39' W 001°48'0 0.0
2020-Oct-19 02:25N 50°39' W 001°48'0 0.1
2020-Oct-19 00:58N 50°39' W 001°48'0 0.0
2020-Oct-18 23:49N 50°39' W 001°48'0 0.0
2020-Oct-18 22:58N 50°39' W 001°48'0 0.0
2020-Oct-18 20:52N 50°39' W 001°48'0 0.0
2020-Oct-18 16:55N 50°39' W 001°48'0 0.0
2020-Oct-18 09:58N 50°39' W 001°48'0 0.0
2020-Oct-18 09:28N 50°39' W 001°48'0 0.0
2020-Oct-18 07:28N 50°39' W 001°48'  

Dump ship's entire track history